Time;durP1;ratioP1;P1;durP2;ratioP2;P2;SDS_P1;SDS_P2;PMS_P1;PMS_P2;Temp;Humidity;BMP_temperature;BMP_pressure;BME280_temperature;BME280_humidity;BME280_pressure;Samples;Min_cycle;Max_cycle;Signal;HPM_P1;HPM_P2
2022/09/28 00:00:46;;;;;;;24.90;10.52;;;;;;;8.53;100.00;99682.56;5288609;28;20027;-76
2022/09/28 00:03:17;;;;;;;22.38;10.55;;;;;;;8.53;100.00;99678.06;5262966;28;20031;-75
2022/09/28 00:05:47;;;;;;;16.08;9.02;;;;;;;8.57;100.00;99678.53;5278770;28;20020;-75
2022/09/28 00:08:18;;;;;;;25.08;9.60;;;;;;;8.50;100.00;99669.59;5288281;28;20023;-75
2022/09/28 00:10:54;;;;;;;15.73;8.80;;;;;;;8.46;100.00;99657.59;5288590;28;20473;-75
2022/09/28 00:13:25;;;;;;;15.98;9.48;;;;;;;8.40;100.00;99648.47;5254483;28;20549;-75
2022/09/28 00:16:10;;;;;;;15.93;8.40;;;;;;;8.31;100.00;99658.34;5266549;28;20030;-75
2022/09/28 00:18:40;;;;;;;20.23;8.93;;;;;;;8.27;100.00;99659.72;5266858;28;20016;-74
2022/09/28 00:21:14;;;;;;;15.25;7.90;;;;;;;8.20;100.00;99653.44;5286094;28;20015;-75
2022/09/28 00:26:34;;;;;;;16.20;8.35;;;;;;;8.11;100.00;99670.53;5251619;28;20047;-75
2022/09/28 00:29:06;;;;;;;13.65;7.47;;;;;;;8.03;100.00;99665.25;5265116;28;20023;-75
2022/09/28 00:31:36;;;;;;;16.85;7.60;;;;;;;7.96;100.00;99675.81;5284336;28;20095;-75
2022/09/28 00:34:07;;;;;;;14.70;7.57;;;;;;;7.90;100.00;99673.03;5284220;28;20103;-76
2022/09/28 00:36:37;;;;;;;16.67;7.80;;;;;;;7.85;100.00;99686.91;5254176;28;20020;-76
2022/09/28 00:39:08;;;;;;;15.73;6.75;;;;;;;7.80;100.00;99675.94;5285947;28;20024;-75
2022/09/28 00:41:39;;;;;;;11.30;7.05;;;;;;;7.80;100.00;99670.59;5273200;28;20432;-75
2022/09/28 00:44:21;;;;;;;13.30;7.55;;;;;;;7.78;100.00;99675.28;5273895;28;20362;-75
2022/09/28 00:46:54;;;;;;;14.82;7.65;;;;;;;7.76;100.00;99674.63;5270652;28;20390;-75
2022/09/28 00:49:52;;;;;;;12.02;7.00;;;;;;;7.73;100.00;99669.63;5266554;28;20020;-74
2022/09/28 00:52:34;;;;;;;16.88;7.15;;;;;;;7.71;100.00;99664.47;5275483;28;20042;-74
2022/09/28 00:55:10;;;;;;;12.82;7.35;;;;;;;7.71;100.00;99666.31;5269721;28;20031;-74
2022/09/28 00:57:47;;;;;;;19.70;8.60;;;;;;;7.74;100.00;99668.66;5287606;28;20027;-75
2022/09/28 01:00:18;;;;;;;18.10;8.90;;;;;;;7.73;100.00;99675.81;5273385;28;20028;-75
2022/09/28 01:02:49;;;;;;;17.85;10.23;;;;;;;7.75;100.00;99672.97;5266190;28;20027;-75
2022/09/28 01:05:21;;;;;;;17.75;9.38;;;;;;;7.76;100.00;99671.97;5265888;28;20362;-75
2022/09/28 01:07:55;;;;;;;18.73;10.40;;;;;;;7.74;100.00;99672.13;5269814;28;20031;-74
2022/09/28 01:10:30;;;;;;;19.20;9.80;;;;;;;7.77;100.00;99669.09;5275954;28;20107;-74
2022/09/28 01:13:06;;;;;;;16.55;9.32;;;;;;;7.78;100.00;99668.13;5266917;28;20473;-75
2022/09/28 01:15:47;;;;;;;25.50;10.45;;;;;;;7.79;100.00;99664.44;5265738;28;20065;-74
2022/09/28 01:19:04;;;;;;;26.67;11.68;;;;;;;7.84;100.00;99671.09;5256502;28;20107;-74
2022/09/28 01:22:10;;;;;;;27.55;11.27;;;;;;;7.94;100.00;99666.34;5277687;28;20042;-75
2022/09/28 01:24:44;;;;;;;21.40;10.73;;;;;;;7.96;100.00;99673.16;5278711;28;20067;-75
2022/09/28 01:27:53;;;;;;;23.58;12.57;;;;;;;8.02;100.00;99664.41;5266216;28;20092;-75
2022/09/28 01:30:24;;;;;;;22.67;10.98;;;;;;;8.05;100.00;99656.06;5287354;27;20362;-76
2022/09/28 01:33:09;;;;;;;22.27;11.63;;;;;;;8.07;100.00;99647.84;5281665;27;20074;-76
2022/09/28 01:35:47;;;;;;;25.90;11.45;;;;;;;8.08;100.00;99648.69;5263102;28;20421;-75
2022/09/28 01:38:22;;;;;;;20.67;10.70;;;;;;;8.07;100.00;99644.38;5257870;28;20173;-75
2022/09/28 01:40:53;;;;;;;;;;;;;;;8.04;100.00;99649.06;5252782;28;20401;-75
2022/09/28 01:43:27;;;;;;;22.25;10.02;;;;;;;8.02;100.00;99660.91;5265853;28;19914;-75
2022/09/28 01:46:06;;;;;;;21.63;9.73;;;;;;;8.01;100.00;99665.44;5273998;28;20034;-75
2022/09/28 01:48:44;;;;;;;21.50;10.27;;;;;;;7.97;100.00;99663.28;5286959;28;20023;-74
2022/09/28 01:51:28;;;;;;;23.10;10.95;;;;;;;7.92;100.00;99661.16;5286968;28;20422;-74
2022/09/28 01:54:04;;;;;;;22.60;10.07;;;;;;;7.89;100.00;99666.03;5274751;28;20016;-74
2022/09/28 01:56:43;;;;;;;20.85;11.30;;;;;;;7.85;100.00;99660.22;5279483;28;20027;-74
2022/09/28 01:59:28;;;;;;;20.55;11.35;;;;;;;7.83;100.00;99662.25;5266517;28;20028;-74
2022/09/28 02:02:11;;;;;;;26.23;11.70;;;;;;;7.78;100.00;99660.09;5278549;28;20024;-75
2022/09/28 02:04:49;;;;;;;28.23;12.63;;;;;;;7.76;100.00;99667.44;5274538;28;20497;-75
2022/09/28 02:07:33;;;;;;;30.25;12.48;;;;;;;7.74;100.00;99658.78;5264526;28;20032;-75
2022/09/28 02:10:12;;;;;;;31.83;12.50;;;;;;;7.75;100.00;99660.44;5272245;28;20511;-75
2022/09/28 02:12:46;;;;;;;30.35;13.60;;;;;;;7.77;100.00;99668.28;5272803;27;20028;-75
2022/09/28 02:15:29;;;;;;;29.92;13.90;;;;;;;7.76;100.00;99663.94;5275716;28;20016;-75
2022/09/28 02:18:00;;;;;;;26.60;13.55;;;;;;;7.74;100.00;99666.81;5270867;28;20055;-76
2022/09/28 02:20:35;;;;;;;35.85;13.98;;;;;;;7.75;100.00;99662.28;5286317;28;20047;-75
2022/09/28 02:23:07;;;;;;;36.63;14.60;;;;;;;7.76;100.00;99663.94;5286636;28;20099;-75
2022/09/28 02:25:41;;;;;;;35.35;15.85;;;;;;;7.77;100.00;99663.75;5271891;28;20024;-75
2022/09/28 02:28:12;;;;;;;33.53;15.55;;;;;;;7.76;100.00;99670.13;5264529;28;20481;-75
2022/09/28 02:30:43;;;;;;;34.85;15.70;;;;;;;7.76;100.00;99667.44;5280622;28;20031;-75
2022/09/28 02:33:32;;;;;;;32.58;16.13;;;;;;;7.76;100.00;99672.78;5268907;28;20417;-76
2022/09/28 02:36:04;;;;;;;39.58;16.15;;;;;;;7.72;100.00;99667.97;5268493;28;20028;-75
2022/09/28 02:38:36;;;;;;;40.10;15.88;;;;;;;7.68;100.00;99666.66;5266664;28;20107;-75
2022/09/28 02:41:31;;;;;;;37.97;15.63;;;;;;;7.62;100.00;99668.19;5276884;28;20032;-75
2022/09/28 02:44:35;;;;;;;33.58;14.80;;;;;;;7.57;100.00;99667.88;5278524;28;20028;-75
2022/09/28 02:47:30;;;;;;;34.03;15.85;;;;;;;7.58;100.00;99674.06;5270324;28;20023;-74
2022/09/28 02:50:12;;;;;;;38.27;16.57;;;;;;;7.62;100.00;99673.53;5272093;28;20079;-75
2022/09/28 02:53:18;;;;;;;42.28;17.75;;;;;;;7.65;100.00;99667.03;5285877;28;20039;-75
2022/09/28 02:56:09;;;;;;;35.28;16.48;;;;;;;7.69;100.00;99669.16;5254072;28;20051;-75
2022/09/28 02:59:05;;;;;;;38.53;16.67;;;;;;;7.71;100.00;99666.31;5265364;28;20079;-75
2022/09/28 03:01:44;;;;;;;;;;;;;;;7.70;100.00;99670.81;5279660;28;20553;-75
2022/09/28 03:04:41;;;;;;;38.53;16.73;;;;;;;7.70;100.00;99673.50;5256757;28;19964;-76
2022/09/28 03:07:30;;;;;;;36.38;15.48;;;;;;;7.70;100.00;99675.34;5279791;28;20153;-75
2022/09/28 03:10:08;;;;;;;32.45;14.48;;;;;;;7.70;100.00;99676.16;5269222;28;20032;-75
2022/09/28 03:12:39;;;;;;;34.78;14.60;;;;;;;7.66;100.00;99674.84;5282731;28;20024;-75
2022/09/28 03:15:30;;;;;;;36.33;15.90;;;;;;;7.64;100.00;99686.72;5268185;28;20213;-75
2022/09/28 03:18:00;;;;;;;40.28;17.70;;;;;;;7.57;100.00;99683.91;5288625;28;20035;-75
2022/09/28 03:20:32;;;;;;;68.95;35.53;;;;;;;7.50;100.00;99683.78;5289823;28;20354;-75
2022/09/28 03:23:03;;;;;;;44.65;21.48;;;;;;;7.44;100.00;99681.81;5290087;27;20106;-73
2022/09/28 03:25:33;;;;;;;50.47;21.05;;;;;;;7.38;100.00;99679.84;5286910;28;20545;-73
2022/09/28 03:28:04;;;;;;;30.05;14.55;;;;;;;7.29;100.00;99672.88;5265090;28;20020;-74
2022/09/28 03:30:34;;;;;;;36.28;16.13;;;;;;;7.21;100.00;99671.06;5271544;28;20032;-74
2022/09/28 03:33:05;;;;;;;81.72;36.50;;;;;;;7.15;100.00;99671.75;5273422;28;20020;-74
2022/09/28 03:35:36;;;;;;;153.10;55.20;;;;;;;7.07;100.00;99669.13;5263131;28;20390;-74
2022/09/28 03:38:06;;;;;;;396.65;143.75;;;;;;;7.03;100.00;99672.28;5258934;28;20016;-74
2022/09/28 03:40:37;;;;;;;176.32;67.53;;;;;;;7.00;100.00;99670.81;5273185;28;20020;-74
2022/09/28 03:43:07;;;;;;;62.80;30.77;;;;;;;6.96;100.00;99665.00;5289639;28;20381;-75
2022/09/28 03:45:38;;;;;;;51.17;22.27;;;;;;;6.88;100.00;99662.38;5268729;28;20031;-75
2022/09/28 03:48:08;;;;;;;31.60;14.50;;;;;;;6.83;100.00;99666.53;5266969;28;20032;-76
2022/09/28 03:50:38;;;;;;;33.80;14.07;;;;;;;6.75;100.00;99659.41;5289240;28;20024;-75
2022/09/28 03:53:09;;;;;;;45.67;14.70;;;;;;;6.70;100.00;99656.41;5284283;28;20028;-75
2022/09/28 03:55:39;;;;;;;53.08;17.05;;;;;;;6.62;100.00;99662.56;5288398;28;20102;-74
2022/09/28 03:58:10;;;;;;;45.30;18.00;;;;;;;6.59;100.00;99668.25;5275462;27;20508;-74
2022/09/28 04:00:40;;;;;;;52.17;17.73;;;;;;;6.55;100.00;99658.09;5278956;28;20526;-75
2022/09/28 04:03:11;;;;;;;54.55;18.98;;;;;;;6.53;100.00;99660.13;5269799;28;20153;-75
2022/09/28 04:05:49;;;;;;;44.53;18.00;;;;;;;6.48;100.00;99660.63;5287960;28;20312;-74
2022/09/28 04:08:19;;;;;;;51.60;18.50;;;;;;;6.44;100.00;99649.47;5268817;28;20073;-74
2022/09/28 04:10:50;;;;;;;51.55;19.48;;;;;;;6.43;100.00;99652.31;5281120;28;20028;-73
2022/09/28 04:13:20;;;;;;;60.70;19.95;;;;;;;6.43;100.00;99655.81;5281752;28;20024;-75
2022/09/28 04:15:53;;;;;;;58.50;21.95;;;;;;;6.44;100.00;99653.97;5267979;28;20073;-74
2022/09/28 04:18:23;;;;;;;62.50;22.52;;;;;;;6.46;100.00;99644.78;5288093;28;20160;-75
2022/09/28 04:21:03;;;;;;;62.50;22.73;;;;;;;6.49;100.00;99655.13;5288622;28;20028;-75
2022/09/28 04:23:35;;;;;;;61.20;22.02;;;;;;;6.49;100.00;99657.78;5277000;28;20027;-74
2022/09/28 04:26:12;;;;;;;67.75;22.70;;;;;;;6.54;100.00;99664.44;5266659;28;20028;-75
2022/09/28 04:31:40;;;;;;;70.05;21.98;;;;;;;6.61;100.00;99668.91;5256507;28;20476;-74
2022/09/28 04:34:13;;;;;;;70.43;23.13;;;;;;;6.60;100.00;99669.91;5266236;28;20015;-74
2022/09/28 04:36:45;;;;;;;58.67;21.30;;;;;;;6.58;100.00;99673.78;5267385;28;20020;-74
2022/09/28 04:39:17;;;;;;;57.63;22.50;;;;;;;6.56;100.00;99675.75;5274179;28;20028;-74
2022/09/28 04:41:48;;;;;;;54.83;21.77;;;;;;;6.51;100.00;99678.91;5286764;28;20077;-74
2022/09/28 04:44:18;;;;;;;41.25;16.25;;;;;;;6.46;100.00;99682.09;5266466;28;20477;-74
2022/09/28 04:46:49;;;;;;;57.30;21.98;;;;;;;6.45;100.00;99683.09;5280852;28;20027;-75
2022/09/28 04:49:19;;;;;;;103.95;23.50;;;;;;;6.43;100.00;99679.78;5266556;28;20038;-74
2022/09/28 04:51:50;;;;;;;111.30;21.45;;;;;;;6.36;100.00;99689.44;5283556;28;20501;-74
2022/09/28 04:54:20;;;;;;;49.28;18.05;;;;;;;6.27;100.00;99678.94;5272181;28;20028;-74
2022/09/28 04:56:52;;;;;;;60.85;22.85;;;;;;;6.21;100.00;99678.59;5266840;28;20035;-74
2022/09/28 04:59:22;;;;;;;61.08;23.13;;;;;;;6.17;100.00;99677.25;5266717;28;20121;-74
2022/09/28 05:01:53;;;;;;;67.43;21.48;;;;;;;6.13;100.00;99678.63;5272454;28;20102;-74
2022/09/28 05:04:23;;;;;;;59.47;19.85;;;;;;;6.09;100.00;99671.13;5273573;28;20031;-73
2022/09/28 05:06:54;;;;;;;170.23;25.80;;;;;;;6.04;100.00;99676.13;5287745;27;20400;-73
2022/09/28 05:09:24;;;;;;;56.72;19.92;;;;;;;5.97;100.00;99679.44;5287247;28;20087;-73
2022/09/28 05:11:55;;;;;;;84.03;21.65;;;;;;;5.95;100.00;99676.09;5278715;28;20519;-73
2022/09/28 05:14:25;;;;;;;56.70;19.80;;;;;;;5.96;100.00;99683.09;5265081;28;20196;-74
2022/09/28 05:16:56;;;;;;;74.15;22.02;;;;;;;5.99;100.00;99681.09;5266345;28;20028;-73
2022/09/28 05:19:26;;;;;;;56.45;20.67;;;;;;;6.01;100.00;99674.59;5280172;28;20020;-74
2022/09/28 05:21:57;;;;;;;52.75;19.85;;;;;;;6.01;100.00;99671.94;5278064;28;20486;-73
2022/09/28 05:24:27;;;;;;;48.25;17.77;;;;;;;5.99;100.00;99678.44;5273022;28;20080;-73
2022/09/28 05:26:57;;;;;;;49.33;17.20;;;;;;;5.94;100.00;99677.09;5270465;28;20047;-73
2022/09/28 05:29:28;;;;;;;61.63;16.75;;;;;;;5.93;100.00;99679.94;5264763;28;20016;-74
2022/09/28 05:32:00;;;;;;;47.67;17.50;;;;;;;5.89;100.00;99678.56;5273673;28;20046;-74
2022/09/28 05:34:30;;;;;;;51.30;16.38;;;;;;;5.87;100.00;99677.88;5270145;28;20111;-73
2022/09/28 05:37:01;;;;;;;49.50;17.17;;;;;;;5.82;100.00;99681.03;5254774;28;20104;-73
2022/09/28 05:39:31;;;;;;;48.65;14.73;;;;;;;5.78;100.00;99685.03;5286460;28;20036;-72
2022/09/28 05:42:02;;;;;;;45.78;16.33;;;;;;;5.77;100.00;99683.34;5287020;28;20388;-72
2022/09/28 05:44:32;;;;;;;51.75;16.70;;;;;;;5.78;100.00;99674.41;5275601;28;20044;-72
2022/09/28 05:47:03;;;;;;;46.53;17.63;;;;;;;5.81;100.00;99683.88;5280035;28;20063;-72
2022/09/28 05:49:33;;;;;;;50.75;17.70;;;;;;;5.81;100.00;99676.72;5266217;28;20028;-72
2022/09/28 05:52:03;;;;;;;43.80;17.13;;;;;;;5.84;100.00;99681.72;5278864;28;20118;-72
2022/09/28 05:54:34;;;;;;;48.72;17.05;;;;;;;5.86;100.00;99682.38;5265248;28;20035;-72
2022/09/28 05:57:06;;;;;;;48.15;19.17;;;;;;;5.88;100.00;99675.06;5265687;28;20048;-72
2022/09/28 05:59:36;;;;;;;235.45;120.80;;;;;;;5.92;100.00;99680.91;5266461;28;20046;-72
2022/09/28 06:02:09;;;;;;;105.22;47.72;;;;;;;5.96;100.00;99685.75;5275747;28;20023;-72
2022/09/28 06:04:39;;;;;;;82.43;30.08;;;;;;;5.98;100.00;99688.25;5273242;28;20031;-72
2022/09/28 06:07:10;;;;;;;61.03;25.88;;;;;;;6.00;100.00;99688.09;5275650;28;20062;-73
2022/09/28 06:09:41;;;;;;;57.97;27.50;;;;;;;6.02;100.00;99691.41;5269155;28;20569;-72
2022/09/28 06:12:11;;;;;;;55.33;24.50;;;;;;;6.08;100.00;99688.09;5277649;28;20098;-72
2022/09/28 06:14:42;;;;;;;49.85;21.58;;;;;;;6.15;100.00;99692.59;5266592;28;20107;-71
2022/09/28 06:17:13;;;;;;;46.67;17.85;;;;;;;6.20;100.00;99684.09;5266532;28;20076;-72
2022/09/28 06:19:43;;;;;;;48.33;19.35;;;;;;;6.27;100.00;99692.25;5283350;28;20040;-72
2022/09/28 06:22:14;;;;;;;45.38;19.30;;;;;;;6.34;100.00;99690.59;5279375;28;20389;-72
2022/09/28 06:24:44;;;;;;;38.78;16.83;;;;;;;6.39;100.00;99696.25;5264733;28;20024;-72
2022/09/28 06:27:15;;;;;;;36.85;17.75;;;;;;;6.48;100.00;99704.09;5256191;28;20111;-72
2022/09/28 06:29:45;;;;;;;35.40;16.52;;;;;;;6.65;100.00;99701.41;5245133;28;20600;-72
2022/09/28 06:32:16;;;;;;;30.80;14.75;;;;;;;6.92;100.00;99710.84;5265140;28;20114;-72
2022/09/28 06:34:46;;;;;;;41.45;19.70;;;;;;;7.20;100.00;99708.59;5260086;28;20380;-72
2022/09/28 06:37:17;;;;;;;31.10;15.65;;;;;;;7.46;100.00;99711.00;5272915;28;20152;-72
2022/09/28 06:39:47;;;;;;;55.92;30.10;;;;;;;7.67;100.00;99719.22;5268723;28;20032;-72
2022/09/28 06:42:18;;;;;;;25.40;12.50;;;;;;;8.00;100.00;99724.38;5273860;28;20020;-72
2022/09/28 06:44:48;;;;;;;73.65;51.85;;;;;;;8.40;100.00;99727.81;5279367;28;20028;-72
2022/09/28 06:47:19;;;;;;;29.40;15.60;;;;;;;8.83;100.00;99736.94;5272249;28;20489;-72
2022/09/28 06:49:54;;;;;;;23.10;12.23;;;;;;;9.11;100.00;99734.47;5280634;28;20285;-72
2022/09/28 06:52:24;;;;;;;16.92;6.63;;;;;;;9.42;100.00;99726.25;5271787;28;20122;-72
2022/09/28 06:54:55;;;;;;;11.50;6.32;;;;;;;9.82;100.00;99745.50;5269290;28;20020;-72
2022/09/28 06:57:25;;;;;;;16.25;7.80;;;;;;;10.09;100.00;99736.75;5279424;28;20264;-72
2022/09/28 06:59:55;;;;;;;14.13;8.27;;;;;;;10.05;100.00;99740.00;5275703;28;20450;-72
2022/09/28 07:02:26;;;;;;;16.48;7.97;;;;;;;10.18;100.00;99744.66;5272970;28;20016;-72
2022/09/28 07:04:57;;;;;;;17.17;9.60;;;;;;;10.42;100.00;99744.31;5277868;28;20422;-72
2022/09/28 07:07:30;;;;;;;33.05;14.45;;;;;;;10.99;100.00;99747.88;5273679;28;20020;-73
2022/09/28 07:10:00;;;;;;;29.60;13.30;;;;;;;11.25;100.00;99742.69;5277883;28;20447;-72
2022/09/28 07:12:34;;;;;;;22.27;10.43;;;;;;;11.81;100.00;99734.50;5279441;28;20160;-72
2022/09/28 07:15:06;;;;;;;9.15;5.68;;;;;;;12.08;100.00;99738.09;5273451;28;20090;-73
2022/09/28 07:17:36;;;;;;;7.82;5.10;;;;;;;12.27;100.00;99733.81;5272779;28;20508;-72
2022/09/28 07:20:07;;;;;;;6.63;4.50;;;;;;;12.49;100.00;99737.13;5279217;28;20027;-72
2022/09/28 07:22:38;;;;;;;6.50;3.75;;;;;;;12.90;100.00;99736.97;5280807;28;20531;-72
2022/09/28 07:25:09;;;;;;;5.75;3.88;;;;;;;13.02;100.00;99739.84;5275697;28;20118;-73
2022/09/28 07:27:39;;;;;;;10.13;4.90;;;;;;;12.81;100.00;99740.91;5270831;28;20026;-72
2022/09/28 07:30:10;;;;;;;9.23;6.43;;;;;;;12.85;100.00;99735.91;5266307;28;20106;-72
2022/09/28 07:32:41;;;;;;;22.00;12.43;;;;;;;13.07;100.00;99744.59;5271628;28;20103;-73
2022/09/28 07:35:11;;;;;;;10.10;5.22;;;;;;;13.00;100.00;99747.28;5277589;28;20012;-73
2022/09/28 07:37:42;;;;;;;11.63;4.95;;;;;;;13.13;100.00;99749.97;5275765;28;20241;-73
2022/09/28 07:43:06;;;;;;;9.82;5.40;;;;;;;13.32;100.00;99750.19;5272878;28;20035;-73
2022/09/28 07:45:37;;;;;;;9.05;4.68;;;;;;;13.44;100.00;99757.38;5269966;28;20030;-72
2022/09/28 07:48:08;;;;;;;9.63;4.82;;;;;;;13.73;100.00;99750.66;5275416;28;20028;-72
2022/09/28 07:50:38;;;;;;;9.70;4.72;;;;;;;13.74;100.00;99756.88;5266854;28;20016;-72
2022/09/28 07:53:09;;;;;;;13.65;6.38;;;;;;;13.76;100.00;99756.69;5277790;28;20028;-72
2022/09/28 07:55:39;;;;;;;12.00;4.35;;;;;;;14.03;100.00;99763.59;5264700;28;20027;-73
2022/09/28 07:58:10;;;;;;;7.45;4.10;;;;;;;14.29;100.00;99768.03;5269688;28;20023;-73
2022/09/28 08:00:40;;;;;;;8.80;4.53;;;;;;;14.09;100.00;99770.00;5267709;28;20476;-72
2022/09/28 08:03:11;;;;;;;10.82;6.43;;;;;;;14.30;100.00;99776.94;5275105;28;20022;-72
2022/09/28 08:05:42;;;;;;;9.63;4.43;;;;;;;14.11;100.00;99776.03;5269750;28;20082;-72
2022/09/28 08:08:14;;;;;;;9.85;4.95;;;;;;;14.19;100.00;99778.47;5273294;28;20036;-73
2022/09/28 08:10:44;;;;;;;6.80;4.75;;;;;;;14.09;100.00;99776.22;5281541;28;20035;-72
2022/09/28 08:13:15;;;;;;;9.70;4.30;;;;;;;14.62;100.00;99783.22;5275067;28;20035;-72
2022/09/28 08:15:47;;;;;;;10.40;4.57;;;;;;;15.08;100.00;99785.56;5273559;28;20490;-73
2022/09/28 08:18:18;;;;;;;10.90;4.65;;;;;;;15.01;100.00;99790.19;5277920;28;20530;-73
2022/09/28 08:23:40;;;;;;;12.25;5.00;;;;;;;14.78;100.00;99788.09;5272891;28;20497;-72
2022/09/28 08:26:10;;;;;;;10.18;4.97;;;;;;;14.22;100.00;99789.66;5264777;28;20054;-72
2022/09/28 08:28:43;;;;;;;10.35;6.13;;;;;;;13.88;100.00;99776.53;5269672;28;20023;-72
2022/09/28 08:31:15;;;;;;;8.07;4.65;;;;;;;14.07;100.00;99782.88;5269447;28;20024;-72
2022/09/28 08:33:52;;;;;;;9.23;4.65;;;;;;;14.42;100.00;99786.00;5272305;28;20030;-72
2022/09/28 08:36:23;;;;;;;14.10;3.42;;;;;;;14.11;100.00;99786.81;5276041;28;20019;-72
2022/09/28 08:38:54;;;;;;;7.15;3.60;;;;;;;13.88;100.00;99792.72;5267867;28;20057;-72
2022/09/28 08:41:33;;;;;;;10.25;4.68;;;;;;;13.91;100.00;99790.41;5277641;28;20035;-72
2022/09/28 08:44:25;;;;;;;13.52;5.18;;;;;;;14.03;100.00;99790.56;5277143;28;20028;-72
2022/09/28 08:46:59;;;;;;;9.63;3.85;;;;;;;14.15;100.00;99791.53;5263445;28;20047;-72
2022/09/28 08:49:35;;;;;;;7.95;3.60;;;;;;;14.02;100.00;99791.63;5269117;28;20101;-72
2022/09/28 08:52:12;;;;;;;7.00;3.83;;;;;;;13.83;100.00;99789.81;5281956;28;20030;-73
2022/09/28 08:54:57;;;;;;;11.40;4.20;;;;;;;13.76;100.00;99799.81;5271475;28;20105;-72
2022/09/28 08:57:32;;;;;;;11.63;3.90;;;;;;;14.53;100.00;99798.84;5263427;28;20072;-73
2022/09/28 09:00:04;;;;;;;9.50;3.75;;;;;;;15.09;100.00;99806.09;5270770;28;20055;-73
2022/09/28 09:02:38;;;;;;;8.77;3.72;;;;;;;15.63;100.00;99801.88;5269430;28;20374;-73
2022/09/28 09:05:15;;;;;;;70.68;34.17;;;;;;;15.43;100.00;99812.03;5276736;28;20069;-73
2022/09/28 09:08:19;;;;;;;30.67;16.27;;;;;;;15.13;100.00;99812.72;5272133;28;20142;-73
2022/09/28 09:10:56;;;;;;;6.97;3.83;;;;;;;14.72;100.00;99805.97;5270609;28;20016;-73
2022/09/28 09:13:48;;;;;;;14.55;7.82;;;;;;;15.04;100.00;99808.63;5271234;28;20503;-73
2022/09/28 09:16:44;;;;;;;12.57;4.65;;;;;;;15.49;100.00;99811.97;5266017;28;20090;-73
2022/09/28 09:19:18;;;;;;;9.45;3.92;;;;;;;15.87;100.00;99808.28;5271454;28;20043;-73
2022/09/28 09:22:00;;;;;;;12.70;4.85;;;;;;;16.14;100.00;99816.88;5274142;28;20028;-73
2022/09/28 09:24:49;;;;;;;9.20;3.40;;;;;;;16.28;100.00;99812.13;5273187;28;20032;-73
2022/09/28 09:27:19;;;;;;;6.20;3.05;;;;;;;16.45;100.00;99815.00;5275204;28;20024;-73
2022/09/28 09:29:50;;;;;;;10.90;3.22;;;;;;;16.48;100.00;99812.69;5276500;28;20034;-73
2022/09/28 09:32:40;;;;;;;10.60;2.90;;;;;;;16.38;100.00;99811.59;5277028;28;20043;-73
2022/09/28 09:35:21;;;;;;;7.72;2.38;;;;;;;16.76;100.00;99813.97;5271772;28;20115;-73
2022/09/28 09:38:29;;;;;;;11.80;2.28;;;;;;;16.95;100.00;99815.53;5270884;28;20426;-73
2022/09/28 09:41:23;;;;;;;18.98;8.18;;;;;;;16.99;100.00;99821.31;5245858;28;20028;-73
2022/09/28 09:44:21;;;;;;;9.52;3.28;;;;;;;16.71;100.00;99813.78;5244652;28;20019;-72
2022/09/28 09:46:59;;;;;;;15.82;10.75;;;;;;;16.88;100.00;99816.72;5261971;28;20526;-73
2022/09/28 09:49:50;;;;;;;9.50;5.45;;;;;;;16.75;100.00;99810.44;5274825;28;20019;-71
2022/09/28 09:52:26;;;;;;;6.43;2.10;;;;;;;16.71;100.00;99816.50;5282315;28;20087;-70
2022/09/28 09:54:59;;;;;;;4.32;1.58;;;;;;;16.70;100.00;99815.69;5272967;28;20019;-70
2022/09/28 09:57:42;;;;;;;8.90;1.80;;;;;;;16.76;100.00;99808.53;5273107;28;20479;-70
2022/09/28 10:00:15;;;;;;;9.27;2.30;;;;;;;16.80;100.00;99809.72;5276255;28;20102;-70
2022/09/28 10:02:47;;;;;;;8.98;1.48;;;;;;;16.61;100.00;99808.94;5274369;28;20027;-70
2022/09/28 10:05:29;;;;;;;7.47;2.35;;;;;;;16.65;100.00;99804.72;5265983;28;20098;-70
2022/09/28 10:08:00;;;;;;;6.15;2.25;;;;;;;16.99;100.00;99816.72;5271438;28;20473;-71
2022/09/28 10:11:08;;;;;;;8.40;1.73;;;;;;;17.01;100.00;99811.06;5273359;28;20034;-70
2022/09/28 10:13:39;;;;;;;4.15;1.55;;;;;;;16.96;100.00;99816.34;5269206;28;20107;-70
2022/09/28 10:16:10;;;;;;;4.95;1.48;;;;;;;16.73;100.00;99809.84;5265834;28;20020;-70
2022/09/28 10:18:40;;;;;;;7.35;1.90;;;;;;;16.46;100.00;99806.66;5284315;28;20026;-73
2022/09/28 10:21:19;;;;;;;6.82;1.70;;;;;;;16.08;100.00;99804.25;5278165;28;20473;-72
2022/09/28 10:23:55;;;;;;;5.95;1.70;;;;;;;16.21;100.00;99804.06;5278585;28;20481;-73
2022/09/28 10:26:34;;;;;;;3.63;1.08;;;;;;;16.24;100.00;99803.63;5272390;28;20137;-73
2022/09/28 10:29:13;;;;;;;10.43;1.40;;;;;;;16.28;100.00;99798.59;5273612;28;20024;-73
2022/09/28 10:31:49;;;;;;;4.40;1.10;;;;;;;16.27;100.00;99808.59;5273512;28;20050;-72
2022/09/28 10:34:26;;;;;;;;;;;;;;;16.31;100.00;99809.78;5268570;28;20012;-73
2022/09/28 10:37:02;;;;;;;11.57;1.83;;;;;;;16.26;100.00;99806.91;5264044;28;20349;-72
2022/09/28 10:39:36;;;;;;;22.73;9.57;;;;;;;16.31;100.00;99809.78;5274590;28;20034;-73
2022/09/28 10:42:10;;;;;;;79.35;37.90;;;;;;;16.32;100.00;99805.22;5276114;28;20029;-73
2022/09/28 10:45:19;;;;;;;9.02;4.50;;;;;;;16.36;100.00;99800.97;5279295;28;20035;-73
2022/09/28 10:47:50;;;;;;;8.27;2.22;;;;;;;16.51;100.00;99797.84;5260350;28;20489;-73
2022/09/28 10:50:24;;;;;;;4.90;1.73;;;;;;;16.04;100.00;99801.19;5270135;28;20191;-72
2022/09/28 10:53:10;;;;;;;3.50;1.40;;;;;;;15.63;100.00;99814.53;5271829;28;20039;-73
2022/09/28 10:55:40;;;;;;;3.90;2.08;;;;;;;15.48;100.00;99804.91;5269481;28;20693;-73
2022/09/28 10:58:25;;;;;;;4.43;1.63;;;;;;;15.75;100.00;99805.47;5266508;28;20032;-72
2022/09/28 11:01:03;;;;;;;5.13;2.33;;;;;;;16.33;100.00;99795.22;5269844;28;20025;-73
2022/09/28 11:03:46;;;;;;;3.80;1.27;;;;;;;16.58;100.00;99801.28;5265289;28;20020;-73
2022/09/28 11:06:24;;;;;;;4.47;1.50;;;;;;;16.82;100.00;99800.34;5265168;28;20020;-73
2022/09/28 11:08:58;;;;;;;4.68;1.45;;;;;;;16.89;100.00;99810.22;5265166;28;20066;-73
2022/09/28 11:11:30;;;;;;;4.05;1.00;;;;;;;16.65;100.00;99802.00;5263270;28;20592;-73
2022/09/28 11:14:02;;;;;;;6.05;1.58;;;;;;;16.30;100.00;99810.00;5268511;28;20054;-73
2022/09/28 11:16:34;;;;;;;6.53;0.93;;;;;;;15.89;100.00;99821.56;5274339;28;20512;-73
2022/09/28 11:19:17;;;;;;;5.38;1.50;;;;;;;15.43;100.00;99823.66;5274932;28;20026;-73
2022/09/28 11:21:48;;;;;;;5.03;1.15;;;;;;;14.55;100.00;99818.31;5272964;28;20023;-73
2022/09/28 11:24:21;;;;;;;11.23;1.50;;;;;;;13.86;100.00;99827.16;5272889;28;20103;-73
2022/09/28 11:26:55;;;;;;;5.97;1.13;;;;;;;13.35;100.00;99820.59;5264555;28;20027;-73
2022/09/28 11:29:37;;;;;;;7.53;1.88;;;;;;;13.08;100.00;99821.66;5265563;28;20028;-74
2022/09/28 11:32:09;;;;;;;6.15;1.30;;;;;;;13.08;100.00;99821.66;5268715;28;20031;-74
2022/09/28 11:34:46;;;;;;;7.95;2.85;;;;;;;13.24;100.00;99821.25;5265476;28;20076;-73
2022/09/28 11:37:55;;;;;;;4.72;2.03;;;;;;;13.56;100.00;99816.03;5253399;28;20489;-74
2022/09/28 11:40:53;;;;;;;17.17;8.18;;;;;;;13.63;100.00;99814.16;5265997;28;20024;-74
2022/09/28 11:43:23;;;;;;;5.15;2.10;;;;;;;14.06;100.00;99811.72;5266384;28;20103;-73
2022/09/28 11:46:04;;;;;;;6.78;1.98;;;;;;;14.72;100.00;99805.97;5266911;28;20044;-73
2022/09/28 11:48:59;;;;;;;4.15;1.45;;;;;;;15.54;100.00;99801.31;5266160;28;20024;-73
2022/09/28 11:51:34;;;;;;;11.63;1.95;;;;;;;15.83;100.00;99806.25;5260154;28;20077;-73
2022/09/28 11:54:27;;;;;;;6.50;1.40;;;;;;;15.63;100.00;99804.59;5265537;28;20028;-73
2022/09/28 11:57:03;;;;;;;6.22;1.83;;;;;;;15.32;100.00;99815.47;5280590;28;20489;-74
2022/09/28 11:59:38;;;;;;;;;;;;;;;14.97;100.00;99814.09;5267031;28;20030;-74
2022/09/28 12:02:38;;;;;;;3.85;2.00;;;;;;;14.67;100.00;99813.09;5260636;28;20281;-74
2022/09/28 12:05:21;;;;;;;6.28;1.85;;;;;;;14.57;100.00;99818.97;5277375;28;20048;-74
2022/09/28 12:08:24;;;;;;;10.00;2.50;;;;;;;14.37;100.00;99812.81;5280816;28;20016;-74
2022/09/28 12:11:11;;;;;;;5.05;2.35;;;;;;;14.00;100.00;99813.38;5241749;28;20048;-73
2022/09/28 12:13:46;;;;;;;2.85;1.50;;;;;;;13.74;100.00;99814.31;5276493;27;20063;-73